Canaan, Maine
Current Conditions -  °F | °C
As of 7:55 PM on Wednesday 17 Dec 2014 (Local Time) from KWVL Reporting Station
Overcast Overcast  
Wind Chill: 24°   Ceiling: 3500
Heat Index: 34°   Visibility: 10mi
Dew Point: 28°   Wind: 16mph
Humidity: 81%   Direction: 20°NNE
Pressure: 29.65"   Gusts: NA
Location:  44.76°N, 69.56°W
Report Text: KWVL 180055Z 02014KT 10SM OVC035 01/M02 A2965 RMK AO1
Loading
Personal Weather Stations






























Interactive Weather Map New forecast layout! Learn more

10-Day Weather Forecast

Advertisements
Track Severe Weather on mobile